createdAt,value
2023-05-15T00:02:14.361Z,101649.78
2023-05-15T00:04:42.507Z,101650.75
2023-05-15T00:07:10.658Z,101657.13
2023-05-15T00:09:38.999Z,101628.41
2023-05-15T00:12:07.620Z,101652.69
2023-05-15T00:14:35.572Z,101648.53
2023-05-15T00:17:03.625Z,101644.97
2023-05-15T00:19:33.093Z,101638.72
2023-05-15T00:22:01.269Z,101638.94
2023-05-15T00:24:29.342Z,101641.63
2023-05-15T00:26:57.508Z,101620.66
2023-05-15T00:29:25.529Z,101634.66
2023-05-15T00:31:53.709Z,101633.78
2023-05-15T00:34:22.954Z,101625.72
2023-05-15T00:36:52.289Z,101626.69
2023-05-15T00:39:20.341Z,101620.56
2023-05-15T00:41:51.125Z,101621.53
2023-05-15T00:44:20.408Z,101615.50
2023-05-15T00:46:49.990Z,101588.78
2023-05-15T00:49:21.973Z,101610.91
2023-05-15T00:51:50.302Z,101605.00
2023-05-15T00:54:19.897Z,101606.81
2023-05-15T00:56:50.888Z,101608.66
2023-05-15T00:59:19.614Z,101598.97
2023-05-15T01:01:47.641Z,101608.78
2023-05-15T01:04:15.752Z,101593.59
2023-05-15T01:06:43.890Z,101594.56
2023-05-15T01:09:13.331Z,101591.13
2023-05-15T01:11:43.877Z,101584.78
2023-05-15T01:14:11.854Z,101590.25
2023-05-15T01:16:41.455Z,101584.00
2023-05-15T01:19:09.600Z,101592.19
2023-05-15T01:22:14.210Z,101588.78
2023-05-15T01:25:11.591Z,101586.94
2023-05-15T01:27:46.327Z,101579.53
2023-05-15T01:30:23.325Z,101561.97
2023-05-15T01:33:03.583Z,101587.91
2023-05-15T01:35:35.080Z,101588.88
2023-05-15T01:38:08.506Z,101582.75
2023-05-15T01:40:37.098Z,101589.13
2023-05-15T01:43:09.995Z,101574.69
2023-05-15T01:45:39.138Z,101575.88
2023-05-15T01:48:09.728Z,101567.69
2023-05-15T01:50:40.559Z,101562.72
2023-05-15T01:53:10.478Z,101576.84
2023-05-15T01:55:39.942Z,101574.16
2023-05-15T01:58:10.494Z,101571.47
2023-05-15T02:00:39.589Z,101568.97
2023-05-15T02:03:08.339Z,101555.84
2023-05-15T02:05:36.612Z,101563.56
2023-05-15T02:08:05.537Z,101532.66
2023-05-15T02:10:34.727Z,101560.16
2023-05-15T02:13:02.996Z,101548.88
2023-05-15T02:15:33.120Z,101541.66
2023-05-15T02:18:01.888Z,101549.59
2023-05-15T02:20:30.034Z,101543.50
2023-05-15T02:22:58.054Z,101541.66
2023-05-15T02:25:36.069Z,101540.59
2023-05-15T02:28:08.475Z,101541.75
2023-05-15T02:30:45.873Z,101530.38
2023-05-15T02:33:20.827Z,101541.25
2023-05-15T02:35:54.021Z,101539.31
2023-05-15T02:38:30.203Z,101533.94
2023-05-15T02:41:01.728Z,101515.13
2023-05-15T02:43:30.386Z,101525.09
2023-05-15T02:46:01.188Z,101525.97
2023-05-15T02:48:30.692Z,101518.03
2023-05-15T02:50:58.717Z,101517.38
2023-05-15T02:53:26.767Z,101521.53
2023-05-15T02:55:54.719Z,101514.56
2023-05-15T02:58:22.741Z,101523.50
2023-05-15T03:00:50.722Z,101521.69
2023-05-15T03:03:20.192Z,101512.97
2023-05-15T03:05:48.112Z,101514.56
2023-05-15T03:08:16.270Z,101508.56
2023-05-15T03:10:44.674Z,101508.34
2023-05-15T03:13:12.620Z,101506.50
2023-05-15T03:15:40.648Z,101504.69
2023-05-15T03:18:08.612Z,101496.59
2023-05-15T03:20:38.147Z,101494.03
2023-05-15T03:23:06.380Z,101489.41
2023-05-15T03:25:34.278Z,101491.13
2023-05-15T03:28:02.318Z,101486.59
2023-05-15T03:30:30.317Z,101481.84
2023-05-15T03:32:58.473Z,101488.75
2023-05-15T03:35:27.162Z,101484.84
2023-05-15T03:37:56.514Z,101473.00
2023-05-15T03:40:24.571Z,101476.22
2023-05-15T03:42:53.533Z,101473.31
2023-05-15T03:45:22.142Z,101456.44
2023-05-15T03:47:50.330Z,101470.03
2023-05-15T03:50:19.118Z,101477.91
2023-05-15T03:52:47.094Z,101489.38
2023-05-15T03:55:16.560Z,101480.22
2023-05-15T03:57:44.528Z,101474.75
2023-05-15T04:00:13.550Z,101465.59
2023-05-15T04:02:41.817Z,101467.19
2023-05-15T04:05:10.357Z,101457.97
2023-05-15T04:07:39.134Z,101470.38
2023-05-15T04:10:09.044Z,101449.31
2023-05-15T04:12:38.587Z,101460.22
2023-05-15T04:15:17.430Z,101468.47
2023-05-15T04:17:45.579Z,101464.06
2023-05-15T04:20:15.277Z,101469.94
2023-05-15T04:22:43.723Z,101441.88
2023-05-15T04:25:12.546Z,101480.13
2023-05-15T04:27:42.896Z,101468.16
2023-05-15T04:30:12.690Z,101473.31
2023-05-15T04:32:41.540Z,101461.03
2023-05-15T04:35:12.301Z,101434.44
2023-05-15T04:37:42.947Z,101470.06
2023-05-15T04:40:12.215Z,101469.78
2023-05-15T04:42:41.832Z,101466.84
2023-05-15T04:45:10.896Z,101463.06
2023-05-15T04:47:39.196Z,101469.22
2023-05-15T04:50:09.189Z,101465.66
2023-05-15T04:52:37.191Z,101461.13
2023-05-15T04:55:06.046Z,101461.38
2023-05-15T04:57:34.112Z,101461.38
2023-05-15T05:00:05.808Z,101466.84
2023-05-15T05:02:33.855Z,101460.75
2023-05-15T05:05:01.835Z,101461.84
2023-05-15T05:07:30.018Z,101460.97
2023-05-15T05:09:57.950Z,101456.44
2023-05-15T05:12:27.359Z,101462.69
2023-05-15T05:14:56.754Z,101458.91
2023-05-15T05:17:26.640Z,101456.84
2023-05-15T05:19:54.576Z,101458.31
2023-05-15T05:22:22.553Z,101452.69
2023-05-15T05:24:50.572Z,101449.00
2023-05-15T05:27:18.540Z,101464.44
2023-05-15T05:29:46.770Z,101451.59
2023-05-15T05:32:14.827Z,101451.09
2023-05-15T05:34:44.140Z,101454.28
2023-05-15T05:37:12.031Z,101428.09
2023-05-15T05:39:40.244Z,101446.44
2023-05-15T05:42:08.232Z,101447.81
2023-05-15T05:44:36.134Z,101452.94
2023-05-15T05:47:04.110Z,101419.75
2023-05-15T05:49:32.136Z,101435.44
2023-05-15T05:52:09.351Z,101432.59
2023-05-15T05:54:37.325Z,101434.56
2023-05-15T05:57:05.803Z,101435.78
2023-05-15T05:59:33.845Z,101428.56
2023-05-15T06:02:01.898Z,101436.28
2023-05-15T06:04:30.057Z,101429.19
2023-05-15T06:06:58.245Z,101433.34
2023-05-15T06:09:27.732Z,101426.84
2023-05-15T06:11:56.103Z,101426.50
2023-05-15T06:14:24.422Z,101434.31
2023-05-15T06:16:52.446Z,101430.50
2023-05-15T06:19:21.726Z,101426.09
2023-05-15T06:21:49.945Z,101429.78
2023-05-15T06:24:18.019Z,101428.91
2023-05-15T06:26:47.592Z,101418.41
2023-05-15T06:29:15.582Z,101420.34
2023-05-15T06:31:43.577Z,101405.81
2023-05-15T06:34:11.568Z,101413.75
2023-05-15T06:36:39.548Z,101419.53
2023-05-15T06:39:10.659Z,101420.72
2023-05-15T06:41:38.947Z,101426.34
2023-05-15T06:44:14.348Z,101432.84
2023-05-15T06:46:42.444Z,101426.84
2023-05-15T06:49:10.432Z,101422.44
2023-05-15T06:51:38.464Z,101422.56
2023-05-15T06:54:06.435Z,101416.09
2023-05-15T06:56:34.490Z,101423.06
2023-05-15T06:59:02.546Z,101411.41
2023-05-15T07:01:32.391Z,101414.44
2023-05-15T07:04:00.634Z,101416.19
2023-05-15T07:06:31.332Z,101414.72
2023-05-15T07:08:59.513Z,101415.34
2023-05-15T07:11:28.460Z,101413.84
2023-05-15T07:13:57.556Z,101409.94
2023-05-15T07:16:25.534Z,101404.28
2023-05-15T07:18:55.072Z,101394.84
2023-05-15T07:21:23.108Z,101407.06
2023-05-15T07:23:51.288Z,101403.25
2023-05-15T07:26:28.711Z,101410.97
2023-05-15T07:29:02.600Z,101391.97
2023-05-15T07:31:31.256Z,101397.13
2023-05-15T07:34:00.815Z,101392.44
2023-05-15T07:36:28.763Z,101398.69
2023-05-15T07:38:56.872Z,101376.91
2023-05-15T07:41:24.857Z,101403.44
2023-05-15T07:43:52.827Z,101396.94
2023-05-15T07:46:20.854Z,101395.81
2023-05-15T07:48:49.173Z,101390.28
2023-05-15T07:51:18.523Z,101384.63
2023-05-15T07:53:46.437Z,101356.13
2023-05-15T07:56:14.413Z,101389.78
2023-05-15T07:58:42.330Z,101391.47
2023-05-15T08:01:10.474Z,101386.84
2023-05-15T08:03:38.604Z,101388.56
2023-05-15T08:06:08.257Z,101386.72
2023-05-15T08:08:37.682Z,101380.34
2023-05-15T08:11:05.705Z,101379.34
2023-05-15T08:13:33.647Z,101371.25
2023-05-15T08:16:01.684Z,101381.91
2023-05-15T08:18:29.771Z,101391.72
2023-05-15T08:20:57.753Z,101393.59
2023-05-15T08:23:25.702Z,101375.78
2023-05-15T08:25:54.976Z,101380.91
2023-05-15T08:28:22.922Z,101375.66
2023-05-15T08:30:50.927Z,101378.22
2023-05-15T08:33:18.940Z,101373.81
2023-05-15T08:35:47.064Z,101375.50
2023-05-15T08:38:15.088Z,101367.56
2023-05-15T08:40:47.173Z,101374.81
2023-05-15T08:43:18.716Z,101356.69
2023-05-15T08:45:46.707Z,101370.38
2023-05-15T08:48:17.267Z,101368.53
2023-05-15T08:50:45.888Z,101372.34
2023-05-15T08:53:14.950Z,101360.69
2023-05-15T08:55:43.348Z,101363.28
2023-05-15T08:58:11.511Z,101357.16
2023-05-15T09:00:41.082Z,101357.03
2023-05-15T09:03:15.931Z,101347.22
2023-05-15T09:05:44.765Z,101350.78
2023-05-15T09:08:13.423Z,101349.06
2023-05-15T09:10:41.673Z,101347.34
2023-05-15T09:13:10.771Z,101350.16
2023-05-15T09:15:40.961Z,101351.84
2023-05-15T09:18:09.922Z,101340.19
2023-05-15T09:20:39.068Z,101343.91
2023-05-15T09:23:23.901Z,101341.22
2023-05-15T09:25:53.666Z,101329.34
2023-05-15T09:28:30.283Z,101327.97
2023-05-15T09:31:01.396Z,101336.94
2023-05-15T09:33:30.539Z,101335.09
2023-05-15T09:35:58.571Z,101336.94
2023-05-15T09:38:26.630Z,101329.69
2023-05-15T09:41:03.534Z,101332.38
2023-05-15T09:43:35.016Z,101332.38
2023-05-15T09:46:04.838Z,101323.44
2023-05-15T09:48:33.708Z,101331.53
2023-05-15T09:51:02.245Z,101324.28
2023-05-15T09:53:31.785Z,101319.88
2023-05-15T09:55:59.994Z,101328.09
2023-05-15T09:58:28.110Z,101322.44
2023-05-15T10:00:56.132Z,101300.06
2023-05-15T10:03:25.521Z,101323.06
2023-05-15T10:06:01.690Z,101318.38
2023-05-15T10:08:29.746Z,101316.69
2023-05-15T10:11:01.387Z,101313.69
2023-05-15T10:13:32.911Z,101316.41
2023-05-15T10:16:03.650Z,101313.84
2023-05-15T10:18:35.128Z,101318.38
2023-05-15T10:21:04.720Z,101317.53
2023-05-15T10:23:35.119Z,101317.53
2023-05-15T10:26:05.370Z,101316.69
2023-05-15T10:28:35.043Z,101311.53
2023-05-15T10:31:04.355Z,101301.59
2023-05-15T10:33:34.301Z,101314.00
2023-05-15T10:36:03.145Z,101315.19
2023-05-15T10:38:32.046Z,101315.09
2023-05-15T10:41:15.871Z,101310.66
2023-05-15T10:43:45.835Z,101313.34
2023-05-15T10:46:14.916Z,101316.91
2023-05-15T10:48:44.837Z,101312.50
2023-05-15T10:51:26.596Z,101318.03
2023-05-15T10:53:55.834Z,101318.03
2023-05-15T10:56:28.089Z,101310.91
2023-05-15T10:58:56.696Z,101282.22
2023-05-15T11:01:29.223Z,101303.69
2023-05-15T11:04:09.925Z,101313.50
2023-05-15T11:06:39.030Z,101321.00
2023-05-15T11:09:38.258Z,101323.53
2023-05-15T11:12:08.522Z,101317.44
2023-05-15T11:14:38.412Z,101315.75
2023-05-15T11:17:08.206Z,101313.16
2023-05-15T11:19:55.523Z,101313.75
2023-05-15T11:22:28.128Z,101313.88
2023-05-15T11:24:59.483Z,101313.03
2023-05-15T11:27:29.121Z,101308.63
2023-05-15T11:30:15.289Z,101313.03
2023-05-15T11:32:51.430Z,101311.31
2023-05-15T11:35:24.232Z,101308.63
2023-05-15T11:37:54.199Z,101303.63
2023-05-15T11:40:24.899Z,101302.75
2023-05-15T11:43:04.512Z,101300.06
2023-05-15T11:45:34.724Z,101296.50
2023-05-15T11:48:04.332Z,101291.25
2023-05-15T11:50:35.737Z,101269.97
2023-05-15T11:53:06.369Z,101281.44
2023-05-15T11:55:35.336Z,101282.41
2023-05-15T11:58:04.304Z,101279.00
2023-05-15T12:00:32.554Z,101252.81
2023-05-15T12:03:00.780Z,101256.25
2023-05-15T12:05:28.851Z,101261.38
2023-05-15T12:07:59.320Z,101263.41
2023-05-15T12:10:27.679Z,101256.28
2023-05-15T12:12:55.788Z,101249.22
2023-05-15T12:15:23.855Z,101247.34
2023-05-15T12:17:52.239Z,101260.00
2023-05-15T12:20:20.371Z,101253.75
2023-05-15T12:22:48.393Z,101254.00
2023-05-15T12:25:17.780Z,101251.03
2023-05-15T12:27:46.107Z,101249.31
2023-05-15T12:30:15.706Z,101252.03
2023-05-15T12:32:44.114Z,101242.22
2023-05-15T12:35:12.984Z,101242.22
2023-05-15T12:37:41.171Z,101247.63
2023-05-15T12:40:11.913Z,101244.94
2023-05-15T12:42:42.688Z,101235.53
2023-05-15T12:45:15.558Z,101236.84
2023-05-15T12:47:44.827Z,101235.13
2023-05-15T12:50:15.871Z,101229.72
2023-05-15T12:52:48.635Z,101232.41
2023-05-15T12:55:18.114Z,101224.47
2023-05-15T12:57:47.529Z,101228.00
2023-05-15T13:00:16.130Z,101229.00
2023-05-15T13:02:45.705Z,101219.19
2023-05-15T13:05:14.815Z,101202.25
2023-05-15T13:07:43.210Z,101213.78
2023-05-15T13:10:13.194Z,101178.47
2023-05-15T13:12:44.505Z,101213.69
2023-05-15T13:15:26.895Z,101163.69
2023-05-15T13:17:57.573Z,101213.53
2023-05-15T13:20:26.043Z,101201.03
2023-05-15T13:22:54.355Z,101196.50
2023-05-15T13:25:23.085Z,101202.59
2023-05-15T13:27:51.912Z,101194.50
2023-05-15T13:30:20.456Z,101194.50
2023-05-15T13:32:49.982Z,101179.19
2023-05-15T13:35:18.034Z,101181.03
2023-05-15T13:37:46.041Z,101170.22
2023-05-15T13:40:14.666Z,101176.47
2023-05-15T13:42:43.782Z,101176.38
2023-05-15T13:45:13.203Z,101168.38
2023-05-15T13:47:41.443Z,101160.56
2023-05-15T13:50:12.986Z,101171.09
2023-05-15T13:52:42.322Z,101171.09
2023-05-15T13:55:11.090Z,101167.53
2023-05-15T13:57:39.272Z,101154.59
2023-05-15T14:00:10.761Z,101173.78
2023-05-15T14:02:38.840Z,101164.84
2023-05-15T14:05:07.346Z,101149.47
2023-05-15T14:07:36.730Z,101162.28
2023-05-15T14:10:05.592Z,101158.72
2023-05-15T14:12:33.827Z,101151.50
2023-05-15T14:15:01.993Z,101147.06
2023-05-15T14:17:30.017Z,101145.38
2023-05-15T14:19:58.052Z,101150.78
2023-05-15T14:22:26.110Z,101145.50
2023-05-15T14:24:55.538Z,101132.88
2023-05-15T14:27:23.777Z,101131.16
2023-05-15T14:29:51.980Z,101132.88
2023-05-15T14:32:20.134Z,101123.06
2023-05-15T14:34:48.229Z,101124.78
2023-05-15T14:37:16.419Z,101116.84
2023-05-15T14:39:44.607Z,101117.66
2023-05-15T14:42:14.043Z,101115.13
2023-05-15T14:44:42.029Z,101116.69
2023-05-15T14:47:12.299Z,101089.94
2023-05-15T14:49:40.970Z,101117.66
2023-05-15T14:52:10.279Z,101116.84
2023-05-15T14:54:39.101Z,101100.06
2023-05-15T14:57:07.655Z,101111.56
2023-05-15T14:59:37.115Z,101106.16
2023-05-15T15:02:05.330Z,101106.31
2023-05-15T15:04:34.606Z,101096.06
2023-05-15T15:07:04.992Z,101103.63
2023-05-15T15:09:33.007Z,101096.50
2023-05-15T15:12:01.154Z,101099.34
2023-05-15T15:14:29.184Z,101092.94
2023-05-15T15:16:58.576Z,101097.50
2023-05-15T15:19:26.591Z,101093.09
2023-05-15T15:21:54.643Z,101085.88
2023-05-15T15:24:22.584Z,101092.94
2023-05-15T15:26:50.657Z,101084.84
2023-05-15T15:29:18.769Z,101089.28
2023-05-15T15:31:46.732Z,101080.91
2023-05-15T15:34:16.837Z,101076.94
2023-05-15T15:36:45.193Z,101075.69
2023-05-15T15:39:13.260Z,101076.25
2023-05-15T15:41:41.307Z,101075.13
2023-05-15T15:44:09.244Z,101074.88
2023-05-15T15:46:37.303Z,101074.59
2023-05-15T15:49:06.798Z,101066.22
2023-05-15T15:51:36.329Z,101069.53
2023-05-15T15:54:04.428Z,101067.56
2023-05-15T15:56:32.550Z,101061.91
2023-05-15T15:59:00.594Z,101064.44
2023-05-15T16:01:28.934Z,101057.06
2023-05-15T16:03:57.106Z,101062.19
2023-05-15T16:06:25.037Z,101063.91
2023-05-15T16:08:54.445Z,101051.13
2023-05-15T16:11:22.600Z,101050.84
2023-05-15T16:13:50.853Z,101047.00
2023-05-15T16:16:18.856Z,101045.16
2023-05-15T16:18:47.000Z,101049.56
2023-05-15T16:21:15.435Z,101040.75
2023-05-15T16:23:43.585Z,101045.88
2023-05-15T16:26:12.806Z,101043.03
2023-05-15T16:28:40.820Z,101046.72
2023-05-15T16:31:09.531Z,101041.19
2023-05-15T16:33:37.585Z,101028.66
2023-05-15T16:36:06.060Z,101038.50
2023-05-15T16:38:34.005Z,101044.91
2023-05-15T16:41:02.271Z,101032.97
2023-05-15T16:43:31.697Z,101038.22
2023-05-15T16:45:59.998Z,101033.25
2023-05-15T16:48:28.781Z,101031.09
2023-05-15T16:50:56.869Z,101027.97
2023-05-15T16:53:24.845Z,101034.34
2023-05-15T16:55:53.582Z,101027.69
2023-05-15T16:58:21.813Z,101020.28
2023-05-15T17:00:51.322Z,101026.00
2023-05-15T17:03:20.415Z,101021.03
2023-05-15T17:05:48.583Z,101021.59
2023-05-15T17:08:16.696Z,101024.72
2023-05-15T17:10:44.645Z,101017.91
2023-05-15T17:13:12.608Z,101015.78
2023-05-15T17:15:40.594Z,101021.88
2023-05-15T17:18:10.078Z,101015.34
2023-05-15T17:20:38.063Z,101015.06
2023-05-15T17:23:06.052Z,101006.81
2023-05-15T17:25:34.082Z,101013.06
2023-05-15T17:28:02.059Z,101012.09
2023-05-15T17:30:30.022Z,101009.38
2023-05-15T17:32:58.250Z,101006.25
2023-05-15T17:35:28.861Z,101004.25
2023-05-15T17:37:58.711Z,101008.78
2023-05-15T17:40:26.711Z,101000.28
2023-05-15T17:42:54.692Z,101004.25
2023-05-15T17:45:22.661Z,101003.97
2023-05-15T17:47:50.941Z,101006.25
2023-05-15T17:50:19.157Z,101005.97
2023-05-15T17:52:48.437Z,101002.28
2023-05-15T17:55:16.611Z,101009.38
2023-05-15T17:57:44.701Z,101004.13
2023-05-15T18:00:13.819Z,101010.81
2023-05-15T18:02:41.776Z,101000.28
2023-05-15T18:05:10.175Z,100998.56
2023-05-15T18:07:38.310Z,100999.31
2023-05-15T18:10:09.584Z,100999.16
2023-05-15T18:12:37.566Z,101002.00
2023-05-15T18:15:06.108Z,101006.56
2023-05-15T18:17:34.177Z,101005.84
2023-05-15T18:20:02.176Z,100917.88
2023-05-15T18:22:30.202Z,100992.75
2023-05-15T18:24:58.203Z,101002.28
2023-05-15T18:27:28.091Z,101002.28
2023-05-15T18:29:56.392Z,100978.38
2023-05-15T18:32:24.519Z,100995.78
2023-05-15T18:34:52.560Z,101003.44
2023-05-15T18:37:20.612Z,101001.72
2023-05-15T18:39:48.593Z,100999.19
2023-05-15T18:42:16.968Z,101000.16
2023-05-15T18:44:46.670Z,100997.47
2023-05-15T18:47:14.729Z,100993.16
2023-05-15T18:49:42.751Z,100992.31
2023-05-15T18:52:10.702Z,100989.88
2023-05-15T18:54:39.566Z,100984.47
2023-05-15T18:57:08.237Z,100977.53
2023-05-15T18:59:36.259Z,100984.63
2023-05-15T19:02:05.753Z,100982.09
2023-05-15T19:04:33.816Z,100974.56
2023-05-15T19:07:01.802Z,100973.25
2023-05-15T19:09:29.757Z,100976.13
2023-05-15T19:11:57.689Z,100976.97
2023-05-15T19:14:25.665Z,100976.28
2023-05-15T19:16:53.736Z,100972.13
2023-05-15T19:19:23.352Z,100967.72
2023-05-15T19:21:51.923Z,100975.81
2023-05-15T19:24:20.321Z,100951.38
2023-05-15T19:26:48.310Z,100975.97
2023-05-15T19:29:16.313Z,100986.19
2023-05-15T19:31:45.660Z,100985.94
2023-05-15T19:34:13.674Z,100991.59
2023-05-15T19:36:46.544Z,100974.56
2023-05-15T19:39:14.541Z,100991.91
2023-05-15T19:41:42.639Z,101003.69
2023-05-15T19:44:10.604Z,100993.16
2023-05-15T19:46:39.089Z,100985.78
2023-05-15T19:49:07.436Z,100985.22
2023-05-15T19:51:35.648Z,100987.66
2023-05-15T19:54:07.257Z,100988.63
2023-05-15T19:56:35.485Z,100973.00
2023-05-15T19:59:03.490Z,100980.69
2023-05-15T20:01:31.592Z,100974.56
2023-05-15T20:03:59.861Z,100971.84
2023-05-15T20:06:28.123Z,100965.75
2023-05-15T20:08:56.412Z,100957.22
2023-05-15T20:11:25.793Z,100964.03
2023-05-15T20:13:54.000Z,100967.75
2023-05-15T20:16:24.420Z,100957.22
2023-05-15T20:18:55.286Z,100959.06
2023-05-15T20:21:23.418Z,100958.38
2023-05-15T20:23:51.450Z,100946.28
2023-05-15T20:26:23.031Z,100945.31
2023-05-15T20:28:52.436Z,100947.25
2023-05-15T20:31:20.744Z,100950.28
2023-05-15T20:33:48.776Z,100947.84
2023-05-15T20:36:17.058Z,100947.44
2023-05-15T20:38:45.454Z,100946.41
2023-05-15T20:41:13.339Z,100937.75
2023-05-15T20:43:41.573Z,100944.84
2023-05-15T20:46:11.104Z,100918.53
2023-05-15T20:48:39.040Z,100938.75
2023-05-15T20:51:06.975Z,100913.13
2023-05-15T20:53:35.150Z,100931.78
2023-05-15T20:56:03.245Z,100938.03
2023-05-15T20:58:31.201Z,100935.44
2023-05-15T21:01:00.848Z,100932.88
2023-05-15T21:03:30.568Z,100928.34
2023-05-15T21:05:58.631Z,100931.31
2023-05-15T21:08:27.822Z,100926.91
2023-05-15T21:10:55.907Z,100925.22
2023-05-15T21:13:23.904Z,100927.06
2023-05-15T21:15:52.017Z,100925.34
2023-05-15T21:18:20.135Z,100897.78
2023-05-15T21:20:49.485Z,100911.84
2023-05-15T21:23:18.197Z,100912.88
2023-05-15T21:25:46.306Z,100908.44
2023-05-15T21:28:14.612Z,100867.13
2023-05-15T21:30:42.790Z,100898.53
2023-05-15T21:33:10.957Z,100900.25
2023-05-15T21:35:39.749Z,100882.59
2023-05-15T21:38:11.546Z,100883.31
2023-05-15T21:40:40.888Z,100870.09
2023-05-15T21:43:09.420Z,100872.69
2023-05-15T21:45:37.567Z,100870.09
2023-05-15T21:48:05.880Z,100873.81
2023-05-15T21:50:33.964Z,100865.84
2023-05-15T21:53:02.230Z,100870.41
2023-05-15T21:55:31.644Z,100872.38
2023-05-15T21:57:59.652Z,100870.53
2023-05-15T22:00:28.240Z,100862.72
2023-05-15T22:02:56.445Z,100864.59
2023-05-15T22:05:24.507Z,100861.16
2023-05-15T22:07:52.458Z,100865.72
2023-05-15T22:10:20.991Z,100856.03
2023-05-15T22:12:50.446Z,100865.00
2023-05-15T22:15:18.715Z,100850.53
2023-05-15T22:17:46.755Z,100861.75
2023-05-15T22:20:15.644Z,100844.81
2023-05-15T22:22:44.000Z,100846.81
2023-05-15T22:25:12.031Z,100838.88
2023-05-15T22:27:40.056Z,100836.63
2023-05-15T22:30:10.470Z,100837.44
2023-05-15T22:32:38.572Z,100829.78
2023-05-15T22:35:08.270Z,100825.53
2023-05-15T22:37:36.767Z,100788.03
2023-05-15T22:40:06.796Z,100823.97
2023-05-15T22:42:34.778Z,100816.13
2023-05-15T22:45:03.042Z,100802.94
2023-05-15T22:47:32.572Z,100809.34
2023-05-15T22:50:00.897Z,100801.53
2023-05-15T22:52:29.010Z,100799.97
2023-05-15T22:54:57.176Z,100797.38
2023-05-15T22:57:26.835Z,100789.47
2023-05-15T22:59:55.668Z,100777.97
2023-05-15T23:02:23.678Z,100783.44
2023-05-15T23:04:53.019Z,100786.31
2023-05-15T23:07:21.424Z,100775.78
2023-05-15T23:09:49.481Z,100779.63
2023-05-15T23:12:17.514Z,100771.69
2023-05-15T23:14:45.575Z,100774.78
2023-05-15T23:17:13.732Z,100765.56
2023-05-15T23:19:42.032Z,100765.00
2023-05-15T23:22:12.694Z,100770.25
2023-05-15T23:24:40.903Z,100754.34
2023-05-15T23:27:08.930Z,100754.63
2023-05-15T23:29:37.386Z,100753.91
2023-05-15T23:32:06.072Z,100738.59
2023-05-15T23:34:34.154Z,100747.13
2023-05-15T23:37:02.152Z,100731.22
2023-05-15T23:39:31.810Z,100730.38
2023-05-15T23:42:01.007Z,100726.97
2023-05-15T23:44:28.941Z,100721.28
2023-05-15T23:46:57.283Z,100717.59
2023-05-15T23:49:25.420Z,100716.75
2023-05-15T23:51:53.447Z,100715.88
2023-05-15T23:54:21.483Z,100711.63
2023-05-15T23:56:50.856Z,100711.63
2023-05-15T23:59:18.940Z,100704.84
